sensor_id;sensor_type;location;lat;lon;timestamp;P1;durP1;ratioP1;P2;durP2;ratioP2
56319;SDS011;42226;42.382;23.748;2023-06-10T00:02:25;2.80;;;2.60;;
56319;SDS011;42226;42.382;23.748;2023-06-10T00:04:53;3.10;;;2.90;;
56319;SDS011;42226;42.382;23.748;2023-06-10T00:07:21;3.05;;;2.85;;
56319;SDS011;42226;42.382;23.748;2023-06-10T00:09:48;2.42;;;2.33;;
56319;SDS011;42226;42.382;23.748;2023-06-10T00:12:17;3.95;;;2.90;;
56319;SDS011;42226;42.382;23.748;2023-06-10T00:14:45;2.80;;;2.70;;
56319;SDS011;42226;42.382;23.748;2023-06-10T00:17:15;3.03;;;2.80;;
56319;SDS011;42226;42.382;23.748;2023-06-10T00:19:43;2.55;;;2.45;;
56319;SDS011;42226;42.382;23.748;2023-06-10T00:22:12;3.90;;;3.17;;
56319;SDS011;42226;42.382;23.748;2023-06-10T00:24:39;3.05;;;2.38;;
56319;SDS011;42226;42.382;23.748;2023-06-10T00:27:07;3.25;;;3.03;;
56319;SDS011;42226;42.382;23.748;2023-06-10T00:29:36;2.38;;;2.25;;
56319;SDS011;42226;42.382;23.748;2023-06-10T00:32:05;2.03;;;1.92;;
56319;SDS011;42226;42.382;23.748;2023-06-10T00:34:33;2.28;;;2.17;;
56319;SDS011;42226;42.382;23.748;2023-06-10T00:37:01;2.67;;;2.50;;
56319;SDS011;42226;42.382;23.748;2023-06-10T00:39:29;2.92;;;2.70;;
56319;SDS011;42226;42.382;23.748;2023-06-10T00:41:56;2.35;;;2.25;;
56319;SDS011;42226;42.382;23.748;2023-06-10T00:44:25;2.20;;;2.10;;
56319;SDS011;42226;42.382;23.748;2023-06-10T00:46:52;2.65;;;2.55;;
56319;SDS011;42226;42.382;23.748;2023-06-10T00:49:22;3.00;;;2.80;;
56319;SDS011;42226;42.382;23.748;2023-06-10T00:51:51;3.03;;;2.72;;
56319;SDS011;42226;42.382;23.748;2023-06-10T00:54:20;2.75;;;2.60;;
56319;SDS011;42226;42.382;23.748;2023-06-10T00:56:48;3.05;;;2.83;;
56319;SDS011;42226;42.382;23.748;2023-06-10T00:59:17;2.80;;;2.60;;
56319;SDS011;42226;42.382;23.748;2023-06-10T01:01:45;2.92;;;2.72;;
56319;SDS011;42226;42.382;23.748;2023-06-10T01:04:13;2.55;;;2.35;;
56319;SDS011;42226;42.382;23.748;2023-06-10T01:06:54;2.33;;;2.22;;
56319;SDS011;42226;42.382;23.748;2023-06-10T01:09:50;2.50;;;2.30;;
56319;SDS011;42226;42.382;23.748;2023-06-10T01:12:33;2.42;;;2.33;;
56319;SDS011;42226;42.382;23.748;2023-06-10T01:15:08;2.60;;;2.50;;
56319;SDS011;42226;42.382;23.748;2023-06-10T01:17:37;2.47;;;2.38;;
56319;SDS011;42226;42.382;23.748;2023-06-10T01:20:28;3.05;;;2.85;;
56319;SDS011;42226;42.382;23.748;2023-06-10T01:22:58;2.30;;;2.20;;
56319;SDS011;42226;42.382;23.748;2023-06-10T01:25:27;2.70;;;2.50;;
56319;SDS011;42226;42.382;23.748;2023-06-10T01:30:59;2.45;;;2.35;;
56319;SDS011;42226;42.382;23.748;2023-06-10T01:33:43;2.83;;;2.67;;
56319;SDS011;42226;42.382;23.748;2023-06-10T01:36:16;2.75;;;2.55;;
56319;SDS011;42226;42.382;23.748;2023-06-10T01:38:47;3.50;;;3.30;;
56319;SDS011;42226;42.382;23.748;2023-06-10T01:41:16;2.70;;;2.50;;
56319;SDS011;42226;42.382;23.748;2023-06-10T01:43:45;2.90;;;2.72;;
56319;SDS011;42226;42.382;23.748;2023-06-10T01:46:13;2.30;;;2.20;;
56319;SDS011;42226;42.382;23.748;2023-06-10T01:48:45;3.03;;;2.83;;
56319;SDS011;42226;42.382;23.748;2023-06-10T01:51:13;2.85;;;2.65;;
56319;SDS011;42226;42.382;23.748;2023-06-10T01:53:41;2.65;;;2.53;;
56319;SDS011;42226;42.382;23.748;2023-06-10T01:56:08;3.55;;;3.25;;
56319;SDS011;42226;42.382;23.748;2023-06-10T01:58:35;3.10;;;2.90;;
56319;SDS011;42226;42.382;23.748;2023-06-10T02:01:02;3.72;;;3.50;;
56319;SDS011;42226;42.382;23.748;2023-06-10T02:03:30;3.00;;;2.80;;
56319;SDS011;42226;42.382;23.748;2023-06-10T02:05:57;3.35;;;3.15;;
56319;SDS011;42226;42.382;23.748;2023-06-10T02:08:25;3.25;;;3.05;;
56319;SDS011;42226;42.382;23.748;2023-06-10T02:10:53;3.20;;;3.00;;
56319;SDS011;42226;42.382;23.748;2023-06-10T02:13:21;2.75;;;2.50;;
56319;SDS011;42226;42.382;23.748;2023-06-10T02:15:49;3.13;;;2.90;;
56319;SDS011;42226;42.382;23.748;2023-06-10T02:18:16;3.65;;;2.95;;
56319;SDS011;42226;42.382;23.748;2023-06-10T02:20:46;3.17;;;2.97;;
56319;SDS011;42226;42.382;23.748;2023-06-10T02:23:15;2.97;;;2.78;;
56319;SDS011;42226;42.382;23.748;2023-06-10T02:25:43;2.67;;;2.58;;
56319;SDS011;42226;42.382;23.748;2023-06-10T02:28:10;3.28;;;3.08;;
56319;SDS011;42226;42.382;23.748;2023-06-10T02:30:40;2.88;;;2.78;;
56319;SDS011;42226;42.382;23.748;2023-06-10T02:33:08;3.05;;;2.85;;
56319;SDS011;42226;42.382;23.748;2023-06-10T02:35:39;2.50;;;2.30;;
56319;SDS011;42226;42.382;23.748;2023-06-10T02:38:06;2.92;;;2.65;;
56319;SDS011;42226;42.382;23.748;2023-06-10T02:40:34;2.45;;;2.35;;
56319;SDS011;42226;42.382;23.748;2023-06-10T02:43:01;2.72;;;2.60;;
56319;SDS011;42226;42.382;23.748;2023-06-10T02:45:29;2.42;;;2.33;;
56319;SDS011;42226;42.382;23.748;2023-06-10T02:47:57;2.67;;;2.58;;
56319;SDS011;42226;42.382;23.748;2023-06-10T02:50:24;3.25;;;2.95;;
56319;SDS011;42226;42.382;23.748;2023-06-10T02:52:52;2.75;;;2.53;;
56319;SDS011;42226;42.382;23.748;2023-06-10T02:55:20;2.78;;;2.60;;
56319;SDS011;42226;42.382;23.748;2023-06-10T02:57:48;2.67;;;2.58;;
56319;SDS011;42226;42.382;23.748;2023-06-10T03:00:15;2.88;;;2.70;;
56319;SDS011;42226;42.382;23.748;2023-06-10T03:02:43;2.75;;;2.63;;
56319;SDS011;42226;42.382;23.748;2023-06-10T03:05:11;3.47;;;3.20;;
56319;SDS011;42226;42.382;23.748;2023-06-10T03:07:39;2.95;;;2.63;;
56319;SDS011;42226;42.382;23.748;2023-06-10T03:10:06;12.73;;;3.03;;
56319;SDS011;42226;42.382;23.748;2023-06-10T03:12:34;3.97;;;3.60;;
56319;SDS011;42226;42.382;23.748;2023-06-10T03:15:02;5.57;;;3.13;;
56319;SDS011;42226;42.382;23.748;2023-06-10T03:17:30;5.25;;;3.53;;
56319;SDS011;42226;42.382;23.748;2023-06-10T03:19:58;3.55;;;3.35;;
56319;SDS011;42226;42.382;23.748;2023-06-10T03:22:26;3.28;;;3.08;;
56319;SDS011;42226;42.382;23.748;2023-06-10T03:24:54;3.25;;;3.05;;
56319;SDS011;42226;42.382;23.748;2023-06-10T03:27:22;2.40;;;2.30;;
56319;SDS011;42226;42.382;23.748;2023-06-10T03:29:50;3.83;;;3.55;;
56319;SDS011;42226;42.382;23.748;2023-06-10T03:32:17;3.85;;;3.65;;
56319;SDS011;42226;42.382;23.748;2023-06-10T03:34:45;3.42;;;3.13;;
56319;SDS011;42226;42.382;23.748;2023-06-10T03:37:12;2.63;;;2.53;;
56319;SDS011;42226;42.382;23.748;2023-06-10T03:39:41;3.58;;;3.28;;
56319;SDS011;42226;42.382;23.748;2023-06-10T03:42:08;3.20;;;3.00;;
56319;SDS011;42226;42.382;23.748;2023-06-10T03:44:37;3.47;;;3.15;;
56319;SDS011;42226;42.382;23.748;2023-06-10T03:47:04;2.58;;;2.47;;
56319;SDS011;42226;42.382;23.748;2023-06-10T03:49:32;3.42;;;3.22;;
56319;SDS011;42226;42.382;23.748;2023-06-10T03:52:00;3.33;;;3.03;;
56319;SDS011;42226;42.382;23.748;2023-06-10T03:54:27;3.50;;;3.30;;
56319;SDS011;42226;42.382;23.748;2023-06-10T03:56:54;3.00;;;2.80;;
56319;SDS011;42226;42.382;23.748;2023-06-10T03:59:21;2.85;;;2.60;;
56319;SDS011;42226;42.382;23.748;2023-06-10T04:01:49;3.50;;;3.20;;
56319;SDS011;42226;42.382;23.748;2023-06-10T04:04:16;3.20;;;3.00;;
56319;SDS011;42226;42.382;23.748;2023-06-10T04:06:44;3.33;;;2.60;;
56319;SDS011;42226;42.382;23.748;2023-06-10T04:09:12;3.75;;;3.45;;
56319;SDS011;42226;42.382;23.748;2023-06-10T04:11:39;3.20;;;2.83;;
56319;SDS011;42226;42.382;23.748;2023-06-10T04:14:07;3.40;;;3.13;;
56319;SDS011;42226;42.382;23.748;2023-06-10T04:16:35;2.15;;;2.05;;
56319;SDS011;42226;42.382;23.748;2023-06-10T04:19:04;2.85;;;2.67;;
56319;SDS011;42226;42.382;23.748;2023-06-10T04:21:30;2.92;;;2.78;;
56319;SDS011;42226;42.382;23.748;2023-06-10T04:23:59;3.28;;;3.08;;
56319;SDS011;42226;42.382;23.748;2023-06-10T04:26:26;2.88;;;2.72;;
56319;SDS011;42226;42.382;23.748;2023-06-10T04:28:54;6.55;;;2.38;;
56319;SDS011;42226;42.382;23.748;2023-06-10T04:31:20;2.90;;;2.70;;
56319;SDS011;42226;42.382;23.748;2023-06-10T04:33:48;2.28;;;2.17;;
56319;SDS011;42226;42.382;23.748;2023-06-10T04:36:16;2.63;;;2.42;;
56319;SDS011;42226;42.382;23.748;2023-06-10T04:38:44;2.30;;;2.10;;
56319;SDS011;42226;42.382;23.748;2023-06-10T04:41:11;2.53;;;2.38;;
56319;SDS011;42226;42.382;23.748;2023-06-10T04:43:39;2.63;;;2.47;;
56319;SDS011;42226;42.382;23.748;2023-06-10T04:46:07;2.42;;;2.33;;
56319;SDS011;42226;42.382;23.748;2023-06-10T04:48:33;2.10;;;2.00;;
56319;SDS011;42226;42.382;23.748;2023-06-10T04:51:02;2.40;;;2.30;;
56319;SDS011;42226;42.382;23.748;2023-06-10T04:53:28;2.30;;;2.20;;
56319;SDS011;42226;42.382;23.748;2023-06-10T04:55:56;2.97;;;2.67;;
56319;SDS011;42226;42.382;23.748;2023-06-10T04:58:24;2.00;;;1.90;;
56319;SDS011;42226;42.382;23.748;2023-06-10T05:00:52;2.33;;;2.20;;
56319;SDS011;42226;42.382;23.748;2023-06-10T05:03:20;2.58;;;2.47;;
56319;SDS011;42226;42.382;23.748;2023-06-10T05:05:47;2.30;;;2.20;;
56319;SDS011;42226;42.382;23.748;2023-06-10T05:08:15;3.15;;;2.80;;
56319;SDS011;42226;42.382;23.748;2023-06-10T05:10:41;3.05;;;2.72;;
56319;SDS011;42226;42.382;23.748;2023-06-10T05:13:10;2.88;;;2.78;;
56319;SDS011;42226;42.382;23.748;2023-06-10T05:15:37;2.38;;;2.28;;
56319;SDS011;42226;42.382;23.748;2023-06-10T05:18:04;2.92;;;2.72;;
56319;SDS011;42226;42.382;23.748;2023-06-10T05:20:31;2.83;;;2.63;;
56319;SDS011;42226;42.382;23.748;2023-06-10T05:22:59;2.00;;;1.90;;
56319;SDS011;42226;42.382;23.748;2023-06-10T05:25:28;2.22;;;2.13;;
56319;SDS011;42226;42.382;23.748;2023-06-10T05:27:59;2.22;;;2.13;;
56319;SDS011;42226;42.382;23.748;2023-06-10T05:30:27;2.35;;;2.20;;
56319;SDS011;42226;42.382;23.748;2023-06-10T05:32:54;2.47;;;1.90;;
56319;SDS011;42226;42.382;23.748;2023-06-10T05:35:22;2.90;;;2.70;;
56319;SDS011;42226;42.382;23.748;2023-06-10T05:37:49;2.45;;;2.25;;
56319;SDS011;42226;42.382;23.748;2023-06-10T05:40:17;2.28;;;2.17;;
56319;SDS011;42226;42.382;23.748;2023-06-10T05:42:44;2.00;;;1.90;;
56319;SDS011;42226;42.382;23.748;2023-06-10T05:45:11;2.95;;;2.50;;
56319;SDS011;42226;42.382;23.748;2023-06-10T05:47:38;2.47;;;2.28;;
56319;SDS011;42226;42.382;23.748;2023-06-10T05:50:06;2.90;;;2.70;;
56319;SDS011;42226;42.382;23.748;2023-06-10T05:52:36;2.00;;;1.90;;
56319;SDS011;42226;42.382;23.748;2023-06-10T05:55:06;1.90;;;1.80;;
56319;SDS011;42226;42.382;23.748;2023-06-10T05:57:34;2.20;;;2.10;;
56319;SDS011;42226;42.382;23.748;2023-06-10T06:00:02;2.35;;;2.20;;
56319;SDS011;42226;42.382;23.748;2023-06-10T06:02:30;2.50;;;2.30;;
56319;SDS011;42226;42.382;23.748;2023-06-10T06:04:58;2.40;;;2.17;;
56319;SDS011;42226;42.382;23.748;2023-06-10T06:07:26;2.33;;;2.13;;
56319;SDS011;42226;42.382;23.748;2023-06-10T06:09:54;2.00;;;1.90;;
56319;SDS011;42226;42.382;23.748;2023-06-10T06:12:21;2.63;;;2.42;;
56319;SDS011;42226;42.382;23.748;2023-06-10T06:14:48;2.75;;;1.98;;
56319;SDS011;42226;42.382;23.748;2023-06-10T06:17:15;2.10;;;2.00;;
56319;SDS011;42226;42.382;23.748;2023-06-10T06:19:42;2.15;;;2.05;;
56319;SDS011;42226;42.382;23.748;2023-06-10T06:22:09;1.58;;;1.58;;
56319;SDS011;42226;42.382;23.748;2023-06-10T06:24:37;1.75;;;1.65;;
56319;SDS011;42226;42.382;23.748;2023-06-10T06:27:04;2.17;;;2.08;;
56319;SDS011;42226;42.382;23.748;2023-06-10T06:29:32;2.20;;;2.00;;
56319;SDS011;42226;42.382;23.748;2023-06-10T06:32:00;4.00;;;2.33;;
56319;SDS011;42226;42.382;23.748;2023-06-10T06:34:28;2.17;;;2.03;;
56319;SDS011;42226;42.382;23.748;2023-06-10T06:36:54;2.05;;;1.95;;
56319;SDS011;42226;42.382;23.748;2023-06-10T06:39:22;1.60;;;1.60;;
56319;SDS011;42226;42.382;23.748;2023-06-10T06:41:48;1.63;;;1.63;;
56319;SDS011;42226;42.382;23.748;2023-06-10T06:44:16;1.60;;;1.60;;
56319;SDS011;42226;42.382;23.748;2023-06-10T06:46:44;1.95;;;1.85;;
56319;SDS011;42226;42.382;23.748;2023-06-10T06:49:12;1.90;;;1.80;;
56319;SDS011;42226;42.382;23.748;2023-06-10T06:51:38;1.83;;;1.73;;
56319;SDS011;42226;42.382;23.748;2023-06-10T06:54:05;2.10;;;1.98;;
56319;SDS011;42226;42.382;23.748;2023-06-10T06:56:33;2.63;;;2.42;;
56319;SDS011;42226;42.382;23.748;2023-06-10T06:59:01;2.22;;;2.13;;
56319;SDS011;42226;42.382;23.748;2023-06-10T07:01:32;1.88;;;1.80;;
56319;SDS011;42226;42.382;23.748;2023-06-10T07:04:00;2.33;;;2.22;;
56319;SDS011;42226;42.382;23.748;2023-06-10T07:06:29;2.67;;;2.47;;
56319;SDS011;42226;42.382;23.748;2023-06-10T07:08:55;2.15;;;2.05;;
56319;SDS011;42226;42.382;23.748;2023-06-10T07:11:23;3.42;;;2.45;;
56319;SDS011;42226;42.382;23.748;2023-06-10T07:13:50;2.22;;;2.13;;
56319;SDS011;42226;42.382;23.748;2023-06-10T07:16:18;2.90;;;2.70;;
56319;SDS011;42226;42.382;23.748;2023-06-10T07:18:47;2.42;;;2.33;;
56319;SDS011;42226;42.382;23.748;2023-06-10T07:21:15;2.65;;;2.45;;
56319;SDS011;42226;42.382;23.748;2023-06-10T07:23:43;2.33;;;2.22;;
56319;SDS011;42226;42.382;23.748;2023-06-10T07:26:11;2.42;;;2.33;;
56319;SDS011;42226;42.382;23.748;2023-06-10T07:28:39;2.40;;;2.30;;
56319;SDS011;42226;42.382;23.748;2023-06-10T07:31:08;2.00;;;1.90;;
56319;SDS011;42226;42.382;23.748;2023-06-10T07:33:37;2.30;;;2.20;;
56319;SDS011;42226;42.382;23.748;2023-06-10T07:36:09;2.30;;;2.20;;
56319;SDS011;42226;42.382;23.748;2023-06-10T07:38:37;2.20;;;2.10;;
56319;SDS011;42226;42.382;23.748;2023-06-10T07:41:03;2.47;;;2.28;;
56319;SDS011;42226;42.382;23.748;2023-06-10T07:43:31;2.50;;;2.30;;
56319;SDS011;42226;42.382;23.748;2023-06-10T07:45:57;2.45;;;2.35;;
56319;SDS011;42226;42.382;23.748;2023-06-10T07:48:25;2.40;;;2.30;;
56319;SDS011;42226;42.382;23.748;2023-06-10T07:50:53;2.95;;;2.75;;
56319;SDS011;42226;42.382;23.748;2023-06-10T07:53:20;2.90;;;2.70;;
56319;SDS011;42226;42.382;23.748;2023-06-10T07:55:48;3.20;;;3.00;;
56319;SDS011;42226;42.382;23.748;2023-06-10T07:58:16;4.30;;;2.78;;
56319;SDS011;42226;42.382;23.748;2023-06-10T08:00:43;2.60;;;2.40;;
56319;SDS011;42226;42.382;23.748;2023-06-10T08:03:10;2.40;;;2.30;;
56319;SDS011;42226;42.382;23.748;2023-06-10T08:05:39;2.42;;;2.33;;
56319;SDS011;42226;42.382;23.748;2023-06-10T08:08:06;2.50;;;2.40;;
56319;SDS011;42226;42.382;23.748;2023-06-10T08:10:34;2.55;;;2.42;;
56319;SDS011;42226;42.382;23.748;2023-06-10T08:13:00;2.83;;;2.67;;
56319;SDS011;42226;42.382;23.748;2023-06-10T08:15:28;2.17;;;2.08;;
56319;SDS011;42226;42.382;23.748;2023-06-10T08:17:55;2.28;;;2.17;;
56319;SDS011;42226;42.382;23.748;2023-06-10T08:20:23;2.40;;;2.20;;
56319;SDS011;42226;42.382;23.748;2023-06-10T08:22:51;2.40;;;2.25;;
56319;SDS011;42226;42.382;23.748;2023-06-10T08:25:18;2.15;;;2.05;;
56319;SDS011;42226;42.382;23.748;2023-06-10T08:27:48;2.15;;;2.05;;
56319;SDS011;42226;42.382;23.748;2023-06-10T08:30:16;2.22;;;2.03;;
56319;SDS011;42226;42.382;23.748;2023-06-10T08:32:45;2.28;;;2.17;;
56319;SDS011;42226;42.382;23.748;2023-06-10T08:35:11;2.00;;;1.90;;
56319;SDS011;42226;42.382;23.748;2023-06-10T08:37:39;2.00;;;1.90;;
56319;SDS011;42226;42.382;23.748;2023-06-10T08:40:06;2.13;;;2.03;;
56319;SDS011;42226;42.382;23.748;2023-06-10T08:42:39;2.58;;;2.47;;
56319;SDS011;42226;42.382;23.748;2023-06-10T08:45:15;2.20;;;2.10;;
56319;SDS011;42226;42.382;23.748;2023-06-10T08:47:46;1.90;;;1.80;;
56319;SDS011;42226;42.382;23.748;2023-06-10T08:50:21;1.92;;;1.83;;
56319;SDS011;42226;42.382;23.748;2023-06-10T08:52:50;1.90;;;1.80;;
56319;SDS011;42226;42.382;23.748;2023-06-10T08:55:26;3.58;;;2.30;;
56319;SDS011;42226;42.382;23.748;2023-06-10T08:57:59;1.83;;;1.75;;
56319;SDS011;42226;42.382;23.748;2023-06-10T09:00:28;2.17;;;2.08;;
56319;SDS011;42226;42.382;23.748;2023-06-10T09:02:57;2.45;;;2.35;;
56319;SDS011;42226;42.382;23.748;2023-06-10T09:05:26;2.25;;;2.15;;
56319;SDS011;42226;42.382;23.748;2023-06-10T09:07:54;1.70;;;1.60;;
56319;SDS011;42226;42.382;23.748;2023-06-10T09:10:24;2.20;;;2.10;;
56319;SDS011;42226;42.382;23.748;2023-06-10T09:12:52;1.65;;;1.65;;
56319;SDS011;42226;42.382;23.748;2023-06-10T09:15:19;2.55;;;2.08;;
56319;SDS011;42226;42.382;23.748;2023-06-10T09:17:47;2.00;;;1.90;;
56319;SDS011;42226;42.382;23.748;2023-06-10T09:20:13;2.20;;;2.00;;
56319;SDS011;42226;42.382;23.748;2023-06-10T09:22:42;4.50;;;2.08;;
56319;SDS011;42226;42.382;23.748;2023-06-10T09:25:10;2.05;;;1.95;;
56319;SDS011;42226;42.382;23.748;2023-06-10T09:27:46;1.98;;;1.88;;
56319;SDS011;42226;42.382;23.748;2023-06-10T09:32:58;1.40;;;1.40;;
56319;SDS011;42226;42.382;23.748;2023-06-10T09:35:29;2.03;;;1.92;;
56319;SDS011;42226;42.382;23.748;2023-06-10T09:37:58;3.03;;;2.10;;
56319;SDS011;42226;42.382;23.748;2023-06-10T09:40:26;2.10;;;2.00;;
56319;SDS011;42226;42.382;23.748;2023-06-10T09:42:56;1.83;;;1.73;;
56319;SDS011;42226;42.382;23.748;2023-06-10T09:45:31;1.80;;;1.70;;
56319;SDS011;42226;42.382;23.748;2023-06-10T09:48:00;1.80;;;1.70;;
56319;SDS011;42226;42.382;23.748;2023-06-10T09:50:26;1.83;;;1.73;;
56319;SDS011;42226;42.382;23.748;2023-06-10T09:52:59;2.47;;;2.35;;
56319;SDS011;42226;42.382;23.748;2023-06-10T09:55:27;1.75;;;1.65;;
56319;SDS011;42226;42.382;23.748;2023-06-10T09:57:59;1.80;;;1.70;;
56319;SDS011;42226;42.382;23.748;2023-06-10T10:00:25;1.40;;;1.40;;
56319;SDS011;42226;42.382;23.748;2023-06-10T10:02:53;1.65;;;1.63;;
56319;SDS011;42226;42.382;23.748;2023-06-10T10:05:21;2.28;;;2.05;;
56319;SDS011;42226;42.382;23.748;2023-06-10T10:07:49;1.80;;;1.70;;
56319;SDS011;42226;42.382;23.748;2023-06-10T10:10:18;1.92;;;1.83;;
56319;SDS011;42226;42.382;23.748;2023-06-10T10:12:48;3.40;;;1.67;;
56319;SDS011;42226;42.382;23.748;2023-06-10T10:15:21;1.80;;;1.70;;
56319;SDS011;42226;42.382;23.748;2023-06-10T10:17:52;2.30;;;2.10;;
56319;SDS011;42226;42.382;23.748;2023-06-10T10:20:26;1.70;;;1.60;;
56319;SDS011;42226;42.382;23.748;2023-06-10T10:22:58;1.95;;;1.85;;
56319;SDS011;42226;42.382;23.748;2023-06-10T10:25:28;1.98;;;1.73;;
56319;SDS011;42226;42.382;23.748;2023-06-10T10:28:11;2.03;;;1.85;;
56319;SDS011;42226;42.382;23.748;2023-06-10T10:30:42;1.88;;;1.77;;
56319;SDS011;42226;42.382;23.748;2023-06-10T10:33:22;2.10;;;2.00;;
56319;SDS011;42226;42.382;23.748;2023-06-10T10:35:59;2.05;;;1.85;;
56319;SDS011;42226;42.382;23.748;2023-06-10T10:41:48;1.40;;;1.40;;
56319;SDS011;42226;42.382;23.748;2023-06-10T10:44:16;2.20;;;2.10;;
56319;SDS011;42226;42.382;23.748;2023-06-10T10:46:48;1.80;;;1.70;;
56319;SDS011;42226;42.382;23.748;2023-06-10T10:49:17;1.90;;;1.80;;
56319;SDS011;42226;42.382;23.748;2023-06-10T10:51:54;1.77;;;1.67;;
56319;SDS011;42226;42.382;23.748;2023-06-10T10:54:31;2.25;;;2.08;;
56319;SDS011;42226;42.382;23.748;2023-06-10T11:02:40;1.45;;;1.45;;
56319;SDS011;42226;42.382;23.748;2023-06-10T11:05:15;1.80;;;1.70;;
56319;SDS011;42226;42.382;23.748;2023-06-10T11:08:00;1.50;;;1.50;;
56319;SDS011;42226;42.382;23.748;2023-06-10T11:10:30;1.90;;;1.80;;
56319;SDS011;42226;42.382;23.748;2023-06-10T11:13:06;1.73;;;1.67;;
56319;SDS011;42226;42.382;23.748;2023-06-10T11:15:42;2.20;;;2.10;;
56319;SDS011;42226;42.382;23.748;2023-06-10T11:18:26;2.15;;;1.90;;
56319;SDS011;42226;42.382;23.748;2023-06-10T11:20:57;2.20;;;2.00;;
56319;SDS011;42226;42.382;23.748;2023-06-10T11:26:11;1.95;;;1.85;;
56319;SDS011;42226;42.382;23.748;2023-06-10T11:29:00;2.25;;;2.15;;
56319;SDS011;42226;42.382;23.748;2023-06-10T11:31:30;1.65;;;1.58;;
56319;SDS011;42226;42.382;23.748;2023-06-10T11:34:00;1.73;;;1.65;;
56319;SDS011;42226;42.382;23.748;2023-06-10T11:36:32;1.60;;;1.50;;
56319;SDS011;42226;42.382;23.748;2023-06-10T11:39:03;1.48;;;1.45;;
56319;SDS011;42226;42.382;23.748;2023-06-10T11:41:31;1.80;;;1.70;;
56319;SDS011;42226;42.382;23.748;2023-06-10T11:44:10;2.15;;;2.05;;
56319;SDS011;42226;42.382;23.748;2023-06-10T11:46:39;1.80;;;1.70;;
56319;SDS011;42226;42.382;23.748;2023-06-10T11:49:08;3.63;;;1.95;;
56319;SDS011;42226;42.382;23.748;2023-06-10T11:51:36;2.25;;;2.05;;
56319;SDS011;42226;42.382;23.748;2023-06-10T11:54:09;1.77;;;1.60;;
56319;SDS011;42226;42.382;23.748;2023-06-10T11:56:37;1.70;;;1.60;;
56319;SDS011;42226;42.382;23.748;2023-06-10T11:59:05;1.80;;;1.70;;
56319;SDS011;42226;42.382;23.748;2023-06-10T12:01:34;2.08;;;1.95;;
56319;SDS011;42226;42.382;23.748;2023-06-10T12:06:51;2.22;;;2.05;;
56319;SDS011;42226;42.382;23.748;2023-06-10T12:09:23;2.25;;;2.15;;
56319;SDS011;42226;42.382;23.748;2023-06-10T12:20:03;1.60;;;1.50;;
56319;SDS011;42226;42.382;23.748;2023-06-10T12:22:43;1.58;;;1.58;;
56319;SDS011;42226;42.382;23.748;2023-06-10T12:25:10;1.70;;;1.60;;
56319;SDS011;42226;42.382;23.748;2023-06-10T12:27:42;2.25;;;1.80;;
56319;SDS011;42226;42.382;23.748;2023-06-10T12:30:21;1.92;;;1.83;;
56319;SDS011;42226;42.382;23.748;2023-06-10T12:32:52;1.95;;;1.85;;
56319;SDS011;42226;42.382;23.748;2023-06-10T12:35:20;1.40;;;1.40;;
56319;SDS011;42226;42.382;23.748;2023-06-10T12:37:55;1.65;;;1.60;;
56319;SDS011;42226;42.382;23.748;2023-06-10T12:40:31;2.50;;;1.60;;
56319;SDS011;42226;42.382;23.748;2023-06-10T12:43:01;2.15;;;2.05;;
56319;SDS011;42226;42.382;23.748;2023-06-10T12:45:31;1.58;;;1.58;;
56319;SDS011;42226;42.382;23.748;2023-06-10T12:48:07;1.80;;;1.70;;
56319;SDS011;42226;42.382;23.748;2023-06-10T12:50:43;1.95;;;1.85;;
56319;SDS011;42226;42.382;23.748;2023-06-10T12:53:13;1.67;;;1.65;;
56319;SDS011;42226;42.382;23.748;2023-06-10T12:55:40;1.92;;;1.83;;
56319;SDS011;42226;42.382;23.748;2023-06-10T12:58:08;1.90;;;1.80;;
56319;SDS011;42226;42.382;23.748;2023-06-10T13:00:36;2.17;;;2.08;;
56319;SDS011;42226;42.382;23.748;2023-06-10T13:03:03;3.20;;;2.63;;
56319;SDS011;42226;42.382;23.748;2023-06-10T13:05:32;2.13;;;2.03;;
56319;SDS011;42226;42.382;23.748;2023-06-10T13:08:05;1.90;;;1.80;;
56319;SDS011;42226;42.382;23.748;2023-06-10T13:10:36;1.77;;;1.67;;
56319;SDS011;42226;42.382;23.748;2023-06-10T13:13:04;1.75;;;1.70;;
56319;SDS011;42226;42.382;23.748;2023-06-10T13:15:34;1.83;;;1.75;;
56319;SDS011;42226;42.382;23.748;2023-06-10T13:18:01;1.70;;;1.60;;
56319;SDS011;42226;42.382;23.748;2023-06-10T13:20:31;1.98;;;1.88;;
56319;SDS011;42226;42.382;23.748;2023-06-10T13:22:57;2.08;;;1.98;;
56319;SDS011;42226;42.382;23.748;2023-06-10T13:25:25;1.80;;;1.70;;
56319;SDS011;42226;42.382;23.748;2023-06-10T13:30:39;1.85;;;1.75;;
56319;SDS011;42226;42.382;23.748;2023-06-10T13:33:06;2.30;;;2.20;;
56319;SDS011;42226;42.382;23.748;2023-06-10T13:35:34;1.70;;;1.60;;
56319;SDS011;42226;42.382;23.748;2023-06-10T13:38:01;1.85;;;1.75;;
56319;SDS011;42226;42.382;23.748;2023-06-10T13:40:28;2.17;;;2.08;;
56319;SDS011;42226;42.382;23.748;2023-06-10T13:42:55;2.00;;;1.90;;
56319;SDS011;42226;42.382;23.748;2023-06-10T13:45:23;1.67;;;1.67;;
56319;SDS011;42226;42.382;23.748;2023-06-10T13:47:50;2.28;;;2.08;;
56319;SDS011;42226;42.382;23.748;2023-06-10T13:50:17;2.00;;;1.90;;
56319;SDS011;42226;42.382;23.748;2023-06-10T13:52:45;1.60;;;1.60;;
56319;SDS011;42226;42.382;23.748;2023-06-10T13:55:12;2.05;;;1.95;;
56319;SDS011;42226;42.382;23.748;2023-06-10T13:57:40;3.78;;;1.77;;
56319;SDS011;42226;42.382;23.748;2023-06-10T14:00:07;3.95;;;1.80;;
56319;SDS011;42226;42.382;23.748;2023-06-10T14:02:36;1.85;;;1.75;;
56319;SDS011;42226;42.382;23.748;2023-06-10T14:05:04;1.67;;;1.60;;
56319;SDS011;42226;42.382;23.748;2023-06-10T14:07:32;1.77;;;1.67;;
56319;SDS011;42226;42.382;23.748;2023-06-10T14:09:58;3.00;;;1.98;;
56319;SDS011;42226;42.382;23.748;2023-06-10T14:12:25;1.73;;;1.63;;
56319;SDS011;42226;42.382;23.748;2023-06-10T14:14:53;1.95;;;1.85;;
56319;SDS011;42226;42.382;23.748;2023-06-10T14:17:20;1.45;;;1.42;;
56319;SDS011;42226;42.382;23.748;2023-06-10T14:19:49;2.90;;;1.98;;
56319;SDS011;42226;42.382;23.748;2023-06-10T14:22:16;1.90;;;1.80;;
56319;SDS011;42226;42.382;23.748;2023-06-10T14:24:44;1.90;;;1.80;;
56319;SDS011;42226;42.382;23.748;2023-06-10T14:27:13;1.63;;;1.63;;
56319;SDS011;42226;42.382;23.748;2023-06-10T14:29:41;2.05;;;1.95;;
56319;SDS011;42226;42.382;23.748;2023-06-10T14:32:07;1.90;;;1.80;;
56319;SDS011;42226;42.382;23.748;2023-06-10T14:34:36;1.95;;;1.85;;
56319;SDS011;42226;42.382;23.748;2023-06-10T14:37:04;1.40;;;1.40;;
56319;SDS011;42226;42.382;23.748;2023-06-10T14:39:33;2.20;;;2.10;;
56319;SDS011;42226;42.382;23.748;2023-06-10T14:42:01;1.90;;;1.80;;
56319;SDS011;42226;42.382;23.748;2023-06-10T14:44:29;1.98;;;1.88;;
56319;SDS011;42226;42.382;23.748;2023-06-10T14:46:57;1.70;;;1.70;;
56319;SDS011;42226;42.382;23.748;2023-06-10T14:49:24;1.80;;;1.70;;
56319;SDS011;42226;42.382;23.748;2023-06-10T14:51:51;1.90;;;1.80;;
56319;SDS011;42226;42.382;23.748;2023-06-10T14:54:19;6.47;;;2.15;;
56319;SDS011;42226;42.382;23.748;2023-06-10T14:56:46;2.00;;;1.90;;
56319;SDS011;42226;42.382;23.748;2023-06-10T14:59:13;2.22;;;2.13;;
56319;SDS011;42226;42.382;23.748;2023-06-10T15:01:40;3.22;;;1.98;;
56319;SDS011;42226;42.382;23.748;2023-06-10T15:04:07;2.15;;;2.05;;
56319;SDS011;42226;42.382;23.748;2023-06-10T15:06:34;2.22;;;2.13;;
56319;SDS011;42226;42.382;23.748;2023-06-10T15:09:02;2.38;;;1.95;;
56319;SDS011;42226;42.382;23.748;2023-06-10T15:11:30;2.50;;;2.30;;
56319;SDS011;42226;42.382;23.748;2023-06-10T15:13:57;2.13;;;2.03;;
56319;SDS011;42226;42.382;23.748;2023-06-10T15:16:24;1.85;;;1.80;;